Time;durP1;ratioP1;P1;durP2;ratioP2;P2;SDS_P1;SDS_P2;PMS_P1;PMS_P2;Temp;Humidity;BMP_temperature;BMP_pressure;BME280_temperature;BME280_humidity;BME280_pressure;Samples;Min_cycle;Max_cycle;Signal;HPM_P1;HPM_P2
2021/01/28 00:04:15;;;;;;;9.37;8.57;;;5.40;43.60;;;;;;10466725;28;20625;-73
2021/01/28 00:09:18;;;;;;;9.90;9.13;;;5.50;43.80;;;;;;10467334;28;20232;-73
2021/01/28 00:14:20;;;;;;;9.53;8.77;;;5.50;43.80;;;;;;10452360;28;20307;-73
2021/01/28 00:19:23;;;;;;;9.50;8.80;;;5.50;43.60;;;;;;10456209;28;20366;-73
2021/01/28 00:24:26;;;;;;;10.57;9.77;;;5.50;43.80;;;;;;10452092;28;20220;-73
2021/01/28 00:29:28;;;;;;;10.10;9.30;;;5.50;44.00;;;;;;10454070;28;20324;-73
2021/01/28 00:34:30;;;;;;;9.90;9.10;;;5.50;43.90;;;;;;10474209;28;20235;-73
2021/01/28 00:39:33;;;;;;;9.37;8.60;;;5.50;44.00;;;;;;10483562;28;20248;-73
2021/01/28 00:44:35;;;;;;;10.00;9.20;;;5.50;44.20;;;;;;10469452;28;20221;-73
2021/01/28 00:49:37;;;;;;;9.47;8.70;;;5.60;44.10;;;;;;10459093;28;20307;-72
2021/01/28 00:54:41;;;;;;;9.77;9.03;;;5.60;44.00;;;;;;10449848;28;20228;-68
2021/01/28 00:59:43;;;;;;;8.90;8.20;;;5.60;44.10;;;;;;10452003;28;20255;-69
2021/01/28 01:04:45;;;;;;;9.20;8.50;;;5.60;43.90;;;;;;10460144;28;20712;-69
2021/01/28 01:09:49;;;;;;;9.63;8.83;;;5.60;43.90;;;;;;10450227;28;20235;-69
2021/01/28 01:14:51;;;;;;;9.03;8.33;;;5.70;44.00;;;;;;10455609;28;20237;-69
2021/01/28 01:19:53;;;;;;;9.33;8.53;;;5.70;44.00;;;;;;10449314;28;20224;-68
2021/01/28 01:24:56;;;;;;;9.07;8.27;;;5.70;44.00;;;;;;10457961;28;20754;-69
2021/01/28 01:29:59;;;;;;;9.07;8.37;;;5.70;44.20;;;;;;10447171;28;20697;-69
2021/01/28 01:35:01;;;;;;;9.07;8.30;;;5.70;44.10;;;;;;10451396;28;20290;-71
2021/01/28 01:40:08;;;;;;;9.50;8.70;;;5.70;44.00;;;;;;10451238;28;20726;-69
2021/01/28 01:45:24;;;;;;;9.17;8.40;;;5.80;44.40;;;;;;10452781;28;20216;-69
2021/01/28 01:50:46;;;;;;;8.57;7.87;;;5.80;44.10;;;;;;10446805;28;20628;-68
2021/01/28 01:55:53;;;;;;;8.30;7.70;;;5.80;44.70;;;;;;10453503;28;20225;-68
2021/01/28 02:00:56;;;;;;;8.47;7.77;;;5.80;44.50;;;;;;10455883;28;20232;-68
2021/01/28 02:06:06;;;;;;;8.50;7.87;;;5.80;44.10;;;;;;10462934;28;20759;-69
2021/01/28 02:11:10;;;;;;;9.27;8.47;;;5.80;44.60;;;;;;10463691;28;20231;-69
2021/01/28 02:16:15;;;;;;;8.83;8.03;;;5.80;44.50;;;;;;10456258;28;20232;-68
2021/01/28 02:21:29;;;;;;;8.50;7.80;;;5.80;44.40;;;;;;10461521;28;20228;-68
2021/01/28 02:26:34;;;;;;;8.50;7.70;;;5.80;44.80;;;;;;10454909;28;20255;-68
2021/01/28 02:31:38;;;;;;;8.47;7.77;;;5.80;44.50;;;;;;10462888;28;20224;-68
2021/01/28 02:36:44;;;;;;;8.83;8.10;;;5.80;44.60;;;;;;10461708;28;20863;-68
2021/01/28 02:41:55;;;;;;;8.33;7.70;;;5.70;44.60;;;;;;10458871;28;20251;-68
2021/01/28 02:46:57;;;;;;;8.87;8.13;;;5.80;45.30;;;;;;10452974;28;20239;-68
2021/01/28 02:52:00;;;;;;;9.03;8.23;;;5.80;44.70;;;;;;10461268;28;20236;-68
2021/01/28 02:57:03;;;;;;;8.23;7.57;;;5.80;44.70;;;;;;10463952;28;20224;-69
2021/01/28 03:02:08;;;;;;;7.97;7.33;;;5.80;44.80;;;;;;10458455;28;20307;-68
2021/01/28 03:07:14;;;;;;;8.20;7.50;;;5.80;45.50;;;;;;10469240;28;20226;-69
2021/01/28 03:12:17;;;;;;;7.57;6.97;;;5.80;44.70;;;;;;10458317;28;20887;-69
2021/01/28 03:17:19;;;;;;;7.80;7.20;;;5.90;44.90;;;;;;10458378;28;20716;-69
2021/01/28 03:22:21;;;;;;;7.37;6.77;;;5.90;44.50;;;;;;10461810;28;20232;-71
2021/01/28 03:27:28;;;;;;;7.60;7.00;;;5.90;44.70;;;;;;10464376;28;20228;-71
2021/01/28 03:32:30;;;;;;;8.00;7.40;;;5.90;44.70;;;;;;10475801;28;20240;-71
2021/01/28 03:37:32;;;;;;;7.50;6.90;;;5.90;44.50;;;;;;10468006;28;20231;-71
2021/01/28 03:42:35;;;;;;;8.03;7.43;;;5.90;44.60;;;;;;10466098;28;20221;-71
2021/01/28 03:47:38;;;;;;;7.80;7.10;;;5.90;44.80;;;;;;10466335;28;20732;-71
2021/01/28 03:52:40;;;;;;;7.70;7.10;;;5.90;44.90;;;;;;10456097;28;20457;-71
2021/01/28 03:57:46;;;;;;;6.70;6.20;;;5.80;44.90;;;;;;10449193;28;20236;-71
2021/01/28 04:02:48;;;;;;;6.20;5.70;;;5.80;45.20;;;;;;10471150;28;20235;-71
2021/01/28 04:07:53;;;;;;;6.87;6.30;;;5.80;45.00;;;;;;10474672;28;20231;-71
2021/01/28 04:12:57;;;;;;;5.87;5.47;;;5.90;45.10;;;;;;10459468;28;20224;-71
2021/01/28 04:17:59;;;;;;;6.33;5.83;;;5.90;45.00;;;;;;10457235;28;20235;-71
2021/01/28 04:23:02;;;;;;;6.33;5.83;;;6.00;45.50;;;;;;10453126;28;20231;-71
2021/01/28 04:28:05;;;;;;;6.67;6.17;;;6.00;44.80;;;;;;10462856;28;20312;-68
2021/01/28 04:33:09;;;;;;;6.57;6.00;;;6.00;44.90;;;;;;10448154;28;20248;-68
2021/01/28 04:38:12;;;;;;;6.03;5.53;;;6.00;44.80;;;;;;10458004;28;20239;-68
2021/01/28 04:43:21;;;;;;;6.00;5.50;;;6.00;44.70;;;;;;10452357;28;20442;-68
2021/01/28 04:48:24;;;;;;;5.80;5.40;;;6.10;45.00;;;;;;10453804;28;20234;-71
2021/01/28 04:53:33;;;;;;;5.30;4.90;;;6.00;44.60;;;;;;10466039;28;20220;-71
2021/01/28 04:58:36;;;;;;;6.10;5.70;;;6.10;45.00;;;;;;10455291;28;20232;-71
2021/01/28 05:03:42;;;;;;;6.33;5.83;;;6.10;44.80;;;;;;10456709;28;20220;-71
2021/01/28 05:08:45;;;;;;;6.17;5.67;;;6.10;44.70;;;;;;10456211;28;20236;-71
2021/01/28 05:13:49;;;;;;;5.50;5.10;;;6.20;44.50;;;;;;10462248;28;20232;-71
2021/01/28 05:19:00;;;;;;;5.97;5.57;;;6.20;44.50;;;;;;10449109;28;20235;-71
2021/01/28 05:24:09;;;;;;;5.93;5.50;;;6.20;44.80;;;;;;10460277;28;20235;-71
2021/01/28 05:29:20;;;;;;;6.67;6.07;;;6.20;44.30;;;;;;10453388;28;20225;-71
2021/01/28 05:34:26;;;;;;;7.03;5.97;;;6.20;44.50;;;;;;10453754;28;20270;-71
2021/01/28 05:39:32;;;;;;;6.60;6.10;;;6.20;44.40;;;;;;10459792;28;20229;-71
2021/01/28 05:44:38;;;;;;;7.23;6.43;;;6.20;44.60;;;;;;10457043;28;20229;-71
2021/01/28 05:49:42;;;;;;;6.07;5.57;;;6.20;44.30;;;;;;10469373;28;20315;-71
2021/01/28 05:54:45;;;;;;;22.33;18.80;;;6.30;44.30;;;;;;10455395;28;20243;-71
2021/01/28 05:59:56;;;;;;;16.43;14.73;;;6.30;43.90;;;;;;10459113;28;20605;-71
2021/01/28 06:05:11;;;;;;;13.90;12.50;;;6.30;44.30;;;;;;10465506;28;20217;-71
2021/01/28 06:10:43;;;;;;;12.07;10.87;;;6.30;44.10;;;;;;10460849;28;20310;-68
2021/01/28 06:15:53;;;;;;;11.93;10.73;;;6.30;44.20;;;;;;10460668;28;20241;-68
2021/01/28 06:21:27;;;;;;;12.80;10.57;;;6.30;43.80;;;;;;10466777;28;20755;-68
2021/01/28 06:26:40;;;;;;;11.03;10.03;;;6.30;43.90;;;;;;10452202;28;20217;-68
2021/01/28 06:31:59;;;;;;;10.67;9.70;;;6.30;43.80;;;;;;10464263;28;20232;-68
2021/01/28 06:37:23;;;;;;;8.30;7.50;;;6.30;43.80;;;;;;10471907;28;20212;-68
2021/01/28 06:42:30;;;;;;;8.00;7.23;;;6.30;43.90;;;;;;10473736;28;20311;-71
2021/01/28 06:47:37;;;;;;;6.50;6.00;;;6.20;43.70;;;;;;10469051;28;20229;-68
2021/01/28 06:52:54;;;;;;;9.17;7.33;;;6.20;43.70;;;;;;10456057;28;20764;-68
2021/01/28 06:58:08;;;;;;;6.93;6.37;;;6.20;43.90;;;;;;10455496;28;20236;-68
2021/01/28 07:03:22;;;;;;;6.60;6.03;;;6.20;44.00;;;;;;10461886;28;20222;-71
2021/01/28 07:08:43;;;;;;;6.80;6.27;;;6.20;44.00;;;;;;10457599;28;20229;-68
2021/01/28 07:13:46;;;;;;;6.73;6.13;;;6.20;44.10;;;;;;10460397;28;20311;-68
2021/01/28 07:18:52;;;;;;;7.27;6.67;;;6.20;43.70;;;;;;10454389;28;20232;-68
2021/01/28 07:24:01;;;;;;;7.57;6.97;;;6.20;44.00;;;;;;10453357;28;20237;-69
2021/01/28 07:29:35;;;;;;;7.17;6.57;;;6.20;44.10;;;;;;10454334;28;20239;-69
2021/01/28 07:34:39;;;;;;;6.53;6.03;;;6.30;44.40;;;;;;10468451;28;20264;-68
2021/01/28 07:39:41;;;;;;;8.10;7.30;;;6.30;44.00;;;;;;10463190;28;20307;-68
2021/01/28 07:44:47;;;;;;;7.47;6.87;;;6.30;44.00;;;;;;10467526;28;20247;-68
2021/01/28 07:50:31;;;;;;;8.43;7.73;;;6.30;44.10;;;;;;10456570;28;20259;-69
2021/01/28 07:55:42;;;;;;;6.97;6.37;;;6.30;44.80;;;;;;10451601;28;20224;-69
2021/01/28 08:00:47;;;;;;;7.60;6.90;;;6.30;44.80;;;;;;10463345;28;20697;-69
2021/01/28 08:05:54;;;;;;;7.67;7.00;;;6.30;44.60;;;;;;10461837;28;20293;-69
2021/01/28 08:11:13;;;;;;;8.70;7.77;;;6.30;44.90;;;;;;10458413;28;20239;-69
2021/01/28 08:16:18;;;;;;;7.17;6.47;;;6.40;45.50;;;;;;10462136;28;20235;-69
2021/01/28 08:21:23;;;;;;;7.87;7.17;;;6.40;45.10;;;;;;10461178;28;20306;-69
2021/01/28 08:26:28;;;;;;;6.77;6.17;;;6.40;45.10;;;;;;10456099;28;20259;-69
2021/01/28 08:31:38;;;;;;;7.20;6.50;;;6.50;45.20;;;;;;10459439;28;20325;-70
2021/01/28 08:36:45;;;;;;;7.50;6.80;;;6.50;45.60;;;;;;10461478;28;20229;-70
2021/01/28 08:42:00;;;;;;;7.63;6.93;;;6.50;45.50;;;;;;10456049;28;20304;-73
2021/01/28 08:47:07;;;;;;;9.10;8.20;;;6.50;45.90;;;;;;10463596;28;20299;-74
2021/01/28 08:52:14;;;;;;;14.27;11.53;;;6.50;45.50;;;;;;10474513;27;20308;-73
2021/01/28 08:57:20;;;;;;;21.63;13.37;;;6.60;45.70;;;;;;10467816;27;20225;-73
2021/01/28 09:02:26;;;;;;;15.40;11.23;;;6.60;45.80;;;;;;10466698;28;20228;-74
2021/01/28 09:07:49;;;;;;;11.27;9.40;;;6.60;45.80;;;;;;10466386;28;20252;-78
2021/01/28 09:12:51;;;;;;;10.53;9.43;;;6.70;46.20;;;;;;10454842;28;20744;-77
2021/01/28 09:17:53;;;;;;;12.37;9.60;;;6.70;45.60;;;;;;10471246;28;20317;-77
2021/01/28 09:23:08;;;;;;;10.27;9.13;;;6.80;45.60;;;;;;10466169;28;20269;-78
2021/01/28 09:28:13;;;;;;;10.00;8.57;;;6.90;46.60;;;;;;10476246;28;20230;-77
2021/01/28 09:33:25;;;;;;;13.37;11.97;;;6.90;46.10;;;;;;10465030;28;20598;-78
2021/01/28 09:38:28;;;;;;;11.23;9.93;;;7.00;46.60;;;;;;10460935;28;20681;-78
2021/01/28 09:43:32;;;;;;;15.80;13.80;;;7.00;46.00;;;;;;10464011;28;20240;-78
2021/01/28 09:48:35;;;;;;;10.77;8.10;;;7.00;46.20;;;;;;10440442;28;20603;-77
2021/01/28 09:53:38;;;;;;;9.10;7.43;;;7.10;46.10;;;;;;10443534;28;20587;-77
2021/01/28 09:58:40;;;;;;;6.23;5.63;;;7.10;46.10;;;;;;10441654;28;20728;-77
2021/01/28 10:03:42;;;;;;;9.17;5.63;;;7.20;46.00;;;;;;10441559;28;20229;-77
2021/01/28 10:08:47;;;;;;;8.03;5.10;;;7.20;46.10;;;;;;10438622;28;20236;-76
2021/01/28 10:13:49;;;;;;;6.60;5.87;;;7.20;46.20;;;;;;10435115;28;20233;-77
2021/01/28 10:18:52;;;;;;;5.37;4.77;;;7.30;46.00;;;;;;10434685;28;20693;-76
2021/01/28 10:23:55;;;;;;;7.43;4.33;;;7.30;46.00;;;;;;10441427;28;20233;-76
2021/01/28 10:28:57;;;;;;;3.33;3.10;;;7.40;46.50;;;;;;10447879;28;20284;-76
2021/01/28 10:33:59;;;;;;;3.60;3.30;;;7.40;46.00;;;;;;10443452;28;20229;-76
2021/01/28 10:39:03;;;;;;;4.53;3.33;;;7.40;46.20;;;;;;10481280;27;20228;-77
2021/01/28 10:44:06;;;;;;;3.00;2.70;;;7.40;46.70;;;;;;10464728;27;20247;-77
2021/01/28 10:49:08;;;;;;;2.93;2.73;;;7.40;46.50;;;;;;10473610;27;20228;-77
2021/01/28 10:54:11;;;;;;;3.27;2.97;;;7.50;46.50;;;;;;10487984;28;20259;-77
2021/01/28 10:59:13;;;;;;;3.50;3.20;;;7.40;46.50;;;;;;10476298;28;20231;-77
2021/01/28 11:04:16;;;;;;;6.07;5.10;;;7.50;46.40;;;;;;10476832;28;20230;-77
2021/01/28 11:09:19;;;;;;;3.53;3.23;;;7.50;46.50;;;;;;10479523;28;20225;-78
2021/01/28 11:14:21;;;;;;;3.07;2.87;;;7.40;46.60;;;;;;10471059;28;20232;-78
2021/01/28 11:19:23;;;;;;;2.90;2.70;;;7.40;46.50;;;;;;10461675;28;20272;-77
2021/01/28 11:24:28;;;;;;;3.40;3.10;;;7.40;46.50;;;;;;10462747;28;20224;-77
2021/01/28 11:29:30;;;;;;;2.77;2.57;;;7.40;46.70;;;;;;10476914;28;20307;-77
2021/01/28 11:34:32;;;;;;;2.57;2.37;;;7.40;46.50;;;;;;10477930;28;20231;-77
2021/01/28 11:39:36;;;;;;;4.00;2.40;;;7.40;46.60;;;;;;10468962;28;20580;-76
2021/01/28 11:44:38;;;;;;;9.60;6.60;;;7.50;47.00;;;;;;10468978;28;20229;-76
2021/01/28 11:49:40;;;;;;;8.63;7.63;;;7.50;46.90;;;;;;10463929;28;20224;-75
2021/01/28 11:54:43;;;;;;;9.90;6.47;;;7.60;47.10;;;;;;10465826;28;20238;-76
2021/01/28 11:59:46;;;;;;;18.00;12.30;;;7.60;47.20;;;;;;10456527;28;20236;-75
2021/01/28 12:04:48;;;;;;;13.87;9.87;;;7.60;47.00;;;;;;10463310;28;20738;-75
2021/01/28 12:09:51;;;;;;;8.23;6.20;;;7.70;47.20;;;;;;10457796;28;20241;-74
2021/01/28 12:14:54;;;;;;;1.70;1.50;;;7.80;47.60;;;;;;10456198;28;20228;-74
2021/01/28 12:19:56;;;;;;;2.20;2.00;;;7.80;47.40;;;;;;10469397;28;20772;-73
2021/01/28 12:24:59;;;;;;;4.13;2.07;;;7.90;47.60;;;;;;10469223;28;20228;-73
2021/01/28 12:30:07;;;;;;;2.30;1.60;;;7.90;47.90;;;;;;10452154;28;20221;-72
2021/01/28 12:35:10;;;;;;;1.80;1.70;;;7.90;47.70;;;;;;10458346;28;20315;-73
2021/01/28 12:40:16;;;;;;;1.50;1.40;;;8.00;47.60;;;;;;10462561;28;20296;-73
2021/01/28 12:45:18;;;;;;;2.30;2.10;;;8.00;47.90;;;;;;10461808;28;20226;-73
2021/01/28 12:50:21;;;;;;;3.57;2.90;;;8.00;47.60;;;;;;10451397;28;20696;-73
2021/01/28 12:55:25;;;;;;;4.43;3.80;;;8.10;47.70;;;;;;10463427;28;20235;-73
2021/01/28 13:00:28;;;;;;;3.47;3.13;;;8.10;47.90;;;;;;10452461;28;20277;-73
2021/01/28 13:05:30;;;;;;;3.50;3.20;;;8.10;47.70;;;;;;10452362;28;20278;-73
2021/01/28 13:10:33;;;;;;;3.03;2.73;;;8.20;47.80;;;;;;10457134;28;20705;-73
2021/01/28 13:15:36;;;;;;;2.20;2.00;;;8.20;47.90;;;;;;10459810;28;20229;-73
2021/01/28 13:20:38;;;;;;;1.60;1.50;;;8.20;47.80;;;;;;10464502;28;20229;-73
2021/01/28 13:25:41;;;;;;;2.77;1.70;;;8.30;48.10;;;;;;10461331;28;20224;-73
2021/01/28 13:30:44;;;;;;;1.57;1.47;;;8.30;48.30;;;;;;10460072;28;20701;-73
2021/01/28 13:35:47;;;;;;;2.87;2.27;;;8.40;48.30;;;;;;10464938;28;20589;-73
2021/01/28 13:40:50;;;;;;;2.20;1.20;;;8.40;48.20;;;;;;10458225;28;20276;-74
2021/01/28 13:45:52;;;;;;;1.13;1.10;;;8.50;49.00;;;;;;10454765;28;20221;-74
2021/01/28 13:50:54;;;;;;;0.80;0.80;;;8.60;49.00;;;;;;10452899;28;20227;-73
2021/01/28 13:55:58;;;;;;;0.70;0.70;;;8.70;49.10;;;;;;10456315;28;20247;-73
2021/01/28 14:01:01;;;;;;;0.80;0.80;;;8.80;49.50;;;;;;10454808;28;20229;-74
2021/01/28 14:06:03;;;;;;;1.50;0.97;;;8.90;49.20;;;;;;10468619;28;20213;-73
2021/01/28 14:11:06;;;;;;;1.40;1.30;;;9.10;49.60;;;;;;10462953;28;20712;-73
2021/01/28 14:16:08;;;;;;;2.37;1.60;;;9.20;49.90;;;;;;10474079;28;20217;-73
2021/01/28 14:21:11;;;;;;;2.30;2.10;;;9.30;49.60;;;;;;10468226;28;20715;-73
2021/01/28 14:26:14;;;;;;;1.37;1.27;;;9.40;49.70;;;;;;10467160;28;20228;-73
2021/01/28 14:31:17;;;;;;;1.03;1.03;;;9.40;49.80;;;;;;10458225;28;20220;-73
2021/01/28 14:36:19;;;;;;;1.10;1.00;;;9.50;50.30;;;;;;10471203;28;20245;-73
2021/01/28 14:41:23;;;;;;;1.20;1.10;;;9.60;49.80;;;;;;10463663;28;20239;-73
2021/01/28 14:46:26;;;;;;;1.00;0.93;;;9.70;50.00;;;;;;10462136;28;20225;-73
2021/01/28 14:51:28;;;;;;;1.03;1.00;;;9.70;49.70;;;;;;10462205;28;20577;-73
2021/01/28 14:56:32;;;;;;;1.53;0.80;;;9.80;49.80;;;;;;10469095;28;20229;-73
2021/01/28 15:01:35;;;;;;;0.70;0.70;;;9.80;50.10;;;;;;10460464;28;20217;-73
2021/01/28 15:06:37;;;;;;;0.63;0.63;;;9.90;50.20;;;;;;10461776;28;20251;-73
2021/01/28 15:11:41;;;;;;;1.43;1.33;;;9.90;50.20;;;;;;10454777;28;20228;-70
2021/01/28 15:16:43;;;;;;;1.20;1.00;;;10.00;49.40;;;;;;10456964;28;20722;-70
2021/01/28 15:21:47;;;;;;;1.00;0.80;;;10.00;49.20;;;;;;10453774;28;20228;-70
2021/01/28 15:26:50;;;;;;;1.40;1.30;;;10.00;49.10;;;;;;10459845;28;20334;-70
2021/01/28 15:31:53;;;;;;;0.87;0.87;;;10.10;49.70;;;;;;10460112;28;20231;-69
2021/01/28 15:36:55;;;;;;;0.60;0.60;;;10.10;49.50;;;;;;10467089;28;20775;-70
2021/01/28 15:41:59;;;;;;;0.70;0.70;;;10.10;49.70;;;;;;10451983;28;20583;-69
2021/01/28 15:47:01;;;;;;;0.63;0.63;;;10.10;50.00;;;;;;10465102;28;20226;-70
2021/01/28 15:52:04;;;;;;;1.27;1.17;;;10.10;49.70;;;;;;10460584;28;20251;-70
2021/01/28 15:57:08;;;;;;;0.80;0.80;;;10.20;49.80;;;;;;10459515;28;20528;-70
2021/01/28 16:02:10;;;;;;;1.30;1.20;;;10.20;50.00;;;;;;10457215;28;20221;-70
2021/01/28 16:07:13;;;;;;;1.60;1.50;;;10.20;49.80;;;;;;10478106;28;20263;-70
2021/01/28 16:12:16;;;;;;;2.67;2.10;;;10.30;49.60;;;;;;10481254;28;20353;-71
2021/01/28 16:17:18;;;;;;;2.63;1.60;;;10.40;49.90;;;;;;10476629;28;21950;-70
2021/01/28 16:22:25;;;;;;;1.60;1.50;;;10.40;49.60;;;;;;10474919;28;20240;-70
2021/01/28 16:27:28;;;;;;;1.50;1.40;;;10.40;49.60;;;;;;10470035;28;20260;-70
2021/01/28 16:32:30;;;;;;;1.80;1.70;;;10.50;49.80;;;;;;10467982;28;20229;-70
2021/01/28 16:37:33;;;;;;;2.30;2.10;;;10.50;49.70;;;;;;10480714;28;20232;-70
2021/01/28 16:42:36;;;;;;;1.70;1.60;;;10.60;49.80;;;;;;10481122;28;20224;-70
2021/01/28 16:47:38;;;;;;;1.90;1.80;;;10.60;50.10;;;;;;10480898;28;20244;-70
2021/01/28 16:52:40;;;;;;;1.40;1.30;;;10.60;49.90;;;;;;10470087;28;20299;-70
2021/01/28 16:57:43;;;;;;;1.60;1.50;;;10.70;50.10;;;;;;10477073;28;20242;-70
2021/01/28 17:02:46;;;;;;;1.70;1.60;;;10.70;50.40;;;;;;10478955;28;20239;-70
2021/01/28 17:07:50;;;;;;;1.77;1.40;;;10.70;50.20;;;;;;10472791;28;20238;-70
2021/01/28 17:12:54;;;;;;;1.50;1.40;;;10.70;50.20;;;;;;10480943;28;20609;-69
2021/01/28 17:17:56;;;;;;;1.23;1.20;;;10.80;50.60;;;;;;10476886;28;20225;-70
2021/01/28 17:22:59;;;;;;;1.10;1.10;;;10.80;50.40;;;;;;10474788;28;20221;-70
2021/01/28 17:28:02;;;;;;;2.20;2.00;;;10.90;50.40;;;;;;10468645;28;20224;-70
2021/01/28 17:33:05;;;;;;;1.70;1.60;;;10.90;50.60;;;;;;10464042;28;20308;-70
2021/01/28 17:38:07;;;;;;;1.70;1.60;;;10.90;50.40;;;;;;10480914;28;20232;-70
2021/01/28 17:43:10;;;;;;;1.80;1.70;;;10.90;50.90;;;;;;10482108;28;20220;-70
2021/01/28 17:48:13;;;;;;;1.80;1.70;;;11.00;51.00;;;;;;10479232;28;20228;-70
2021/01/28 17:53:17;;;;;;;1.30;1.20;;;11.00;51.20;;;;;;10487560;28;20216;-70
2021/01/28 17:58:20;;;;;;;1.40;1.30;;;11.00;50.60;;;;;;10483386;28;20861;-70
2021/01/28 18:03:22;;;;;;;1.50;1.40;;;11.10;50.70;;;;;;10485094;28;20236;-70
2021/01/28 18:08:25;;;;;;;1.27;1.17;;;11.10;50.40;;;;;;10483595;28;20236;-70
2021/01/28 18:13:28;;;;;;;1.23;1.10;;;11.20;50.50;;;;;;10479879;28;20716;-70
2021/01/28 18:18:30;;;;;;;1.63;1.53;;;11.20;50.80;;;;;;10482998;28;20235;-70
2021/01/28 18:23:33;;;;;;;1.33;1.23;;;11.20;50.40;;;;;;10481918;28;20220;-70
2021/01/28 18:28:36;;;;;;;1.60;1.50;;;11.30;50.30;;;;;;10479353;28;20230;-70
2021/01/28 18:33:38;;;;;;;1.50;1.40;;;11.30;50.50;;;;;;10473915;28;20231;-70
2021/01/28 18:38:40;;;;;;;2.20;2.00;;;11.30;50.20;;;;;;10481817;28;20232;-70
2021/01/28 18:43:44;;;;;;;2.17;2.00;;;11.30;50.20;;;;;;10483458;28;20232;-70
2021/01/28 18:48:52;;;;;;;1.90;1.80;;;11.40;50.50;;;;;;10471546;28;20239;-70
2021/01/28 18:53:54;;;;;;;2.30;2.20;;;11.40;50.30;;;;;;10480634;28;20751;-70
2021/01/28 18:58:58;;;;;;;1.73;1.63;;;11.40;50.50;;;;;;10480033;28;20220;-70
2021/01/28 19:04:00;;;;;;;2.00;1.90;;;11.40;50.50;;;;;;10476501;28;20224;-70
2021/01/28 19:09:02;;;;;;;1.47;1.37;;;11.40;50.50;;;;;;10472455;28;20227;-71
2021/01/28 19:14:06;;;;;;;1.40;1.40;;;11.40;50.30;;;;;;10478721;28;20223;-71
2021/01/28 19:19:08;;;;;;;1.57;1.47;;;11.50;50.50;;;;;;10477152;28;20235;-71
2021/01/28 19:24:12;;;;;;;2.00;1.80;;;11.50;50.40;;;;;;10479276;28;20216;-70
2021/01/28 19:29:15;;;;;;;2.00;1.80;;;11.50;50.50;;;;;;10478574;28;20225;-71
2021/01/28 19:34:17;;;;;;;2.20;2.00;;;11.50;50.60;;;;;;10486394;28;20228;-70
2021/01/28 19:39:20;;;;;;;3.00;2.80;;;11.60;50.50;;;;;;10475620;28;20637;-71
2021/01/28 19:44:23;;;;;;;2.43;2.33;;;11.60;50.40;;;;;;10480356;28;20231;-70
2021/01/28 19:49:25;;;;;;;2.07;1.97;;;11.60;50.50;;;;;;10480151;28;20236;-70
2021/01/28 19:54:27;;;;;;;1.97;1.87;;;11.60;50.10;;;;;;10479059;28;20236;-71
2021/01/28 19:59:30;;;;;;;1.80;1.70;;;11.60;50.30;;;;;;10472218;28;20232;-70
2021/01/28 20:04:33;;;;;;;1.70;1.60;;;11.60;50.50;;;;;;10471683;28;20228;-70
2021/01/28 20:09:37;;;;;;;1.70;1.60;;;11.60;50.30;;;;;;10480202;28;20228;-70
2021/01/28 20:14:41;;;;;;;1.70;1.60;;;11.70;50.30;;;;;;10481357;28;20266;-70
2021/01/28 20:19:43;;;;;;;1.80;1.70;;;11.70;50.40;;;;;;10470468;28;20225;-70
2021/01/28 20:24:46;;;;;;;1.87;1.77;;;11.70;50.10;;;;;;10479899;28;20269;-70
2021/01/28 20:29:49;;;;;;;2.13;1.93;;;11.70;50.10;;;;;;10475980;28;20228;-70
2021/01/28 20:34:52;;;;;;;2.47;2.00;;;11.70;50.30;;;;;;10480635;28;20220;-71
2021/01/28 20:39:54;;;;;;;2.00;1.90;;;11.70;50.40;;;;;;10479723;28;20236;-70
2021/01/28 20:44:58;;;;;;;2.07;1.97;;;11.70;50.40;;;;;;10467738;28;20244;-70
2021/01/28 20:50:00;;;;;;;2.43;2.23;;;11.70;50.50;;;;;;10456530;28;20267;-70
2021/01/28 20:55:03;;;;;;;1.90;1.80;;;11.70;50.30;;;;;;10465270;28;20666;-71
2021/01/28 21:00:08;;;;;;;1.60;1.50;;;11.70;50.40;;;;;;10448072;28;20232;-71
2021/01/28 21:05:11;;;;;;;2.00;1.60;;;11.70;50.40;;;;;;10466133;28;20320;-71
2021/01/28 21:10:14;;;;;;;1.40;1.30;;;11.80;50.40;;;;;;10461783;28;20625;-70
2021/01/28 21:15:24;;;;;;;1.60;1.50;;;11.80;50.40;;;;;;10469758;28;20217;-71
2021/01/28 21:20:29;;;;;;;1.50;1.30;;;11.80;50.40;;;;;;10475558;28;20631;-70
2021/01/28 21:25:31;;;;;;;1.43;1.33;;;11.90;50.30;;;;;;10472595;28;20266;-70
2021/01/28 21:30:35;;;;;;;1.70;1.60;;;11.90;50.10;;;;;;10479612;28;20226;-71
2021/01/28 21:35:37;;;;;;;1.60;1.50;;;11.90;50.10;;;;;;10474938;28;20242;-70
2021/01/28 21:40:39;;;;;;;1.83;1.70;;;11.90;50.10;;;;;;10474442;28;20302;-71
2021/01/28 21:45:42;;;;;;;1.50;1.40;;;11.90;50.00;;;;;;10473131;28;20224;-71
2021/01/28 21:50:52;;;;;;;1.60;1.50;;;11.90;50.00;;;;;;10469440;28;20578;-71
2021/01/28 21:55:55;;;;;;;1.30;1.30;;;11.90;50.00;;;;;;10457194;28;20224;-71
2021/01/28 22:00:58;;;;;;;1.60;1.50;;;11.90;49.80;;;;;;10453533;28;20229;-70
2021/01/28 22:06:00;;;;;;;1.50;1.40;;;11.90;49.70;;;;;;10464695;28;20278;-70
2021/01/28 22:11:03;;;;;;;1.50;1.40;;;11.90;49.80;;;;;;10465889;28;20304;-71
2021/01/28 22:16:06;;;;;;;1.33;1.23;;;11.90;49.80;;;;;;10466369;28;20729;-71
2021/01/28 22:21:09;;;;;;;1.30;1.30;;;11.90;50.10;;;;;;10457697;28;20634;-71
2021/01/28 22:26:11;;;;;;;1.40;1.30;;;11.90;50.10;;;;;;10452496;28;20243;-70
2021/01/28 22:31:14;;;;;;;1.30;1.30;;;11.90;50.00;;;;;;10460189;28;20709;-70
2021/01/28 22:36:17;;;;;;;1.30;1.20;;;11.90;50.10;;;;;;10458460;28;20229;-70
2021/01/28 22:41:19;;;;;;;1.43;1.33;;;11.90;49.90;;;;;;10453127;28;20618;-70
2021/01/28 22:46:22;;;;;;;1.23;1.20;;;11.90;49.90;;;;;;10458389;28;20268;-70
2021/01/28 22:51:25;;;;;;;1.90;1.80;;;11.90;50.10;;;;;;10452578;28;20302;-70
2021/01/28 22:56:27;;;;;;;1.83;1.67;;;11.90;50.10;;;;;;10457399;28;20749;-70
2021/01/28 23:01:30;;;;;;;1.37;1.30;;;11.80;50.00;;;;;;10450667;28;20588;-70
2021/01/28 23:06:33;;;;;;;1.60;1.50;;;11.80;49.90;;;;;;10466945;28;20233;-71
2021/01/28 23:11:35;;;;;;;1.20;1.20;;;11.80;49.90;;;;;;10459470;28;20225;-70
2021/01/28 23:16:41;;;;;;;1.40;1.30;;;11.80;49.80;;;;;;10453714;28;20225;-71
2021/01/28 23:21:43;;;;;;;1.20;1.20;;;11.80;50.00;;;;;;10456858;28;20717;-70
2021/01/28 23:26:45;;;;;;;1.20;1.10;;;11.80;50.10;;;;;;10454470;28;20566;-70
2021/01/28 23:31:48;;;;;;;1.03;0.93;;;11.80;50.00;;;;;;10455189;28;20229;-71
2021/01/28 23:36:51;;;;;;;2.10;1.60;;;11.80;50.00;;;;;;10460283;28;20638;-70
2021/01/28 23:41:53;;;;;;;1.37;1.30;;;11.80;50.00;;;;;;10457654;28;20221;-70
2021/01/28 23:46:56;;;;;;;1.60;1.50;;;11.80;50.10;;;;;;10455528;28;20229;-70
2021/01/28 23:51:59;;;;;;;1.50;1.40;;;11.80;50.30;;;;;;10451019;28;20226;-70
2021/01/28 23:57:01;;;;;;;1.70;1.60;;;11.80;50.10;;;;;;10457508;28;20232;-70
